Time;durP1;ratioP1;P1;durP2;ratioP2;P2;SDS_P1;SDS_P2;PMS_P1;PMS_P2;Temp;Humidity;BMP_temperature;BMP_pressure;BME280_temperature;BME280_humidity;BME280_pressure;Samples;Min_cycle;Max_cycle;Signal;HPM_P1;HPM_P2
2023/07/21 00:02:25;;;;;;;6.65;5.72;;;;;;;17.96;58.96;101155.28;5051600;28;20044;-68
2023/07/21 00:04:51;;;;;;;7.63;6.05;;;;;;;17.94;59.26;101157.56;5070613;28;20024;-68
2023/07/21 00:07:17;;;;;;;6.95;6.25;;;;;;;17.90;59.14;101155.34;5067141;28;20506;-68
2023/07/21 00:09:43;;;;;;;6.97;6.28;;;;;;;17.80;59.53;101154.56;5069441;28;20517;-68
2023/07/21 00:12:09;;;;;;;8.10;6.07;;;;;;;17.85;59.36;101152.59;5071034;28;20067;-68
2023/07/21 00:14:34;;;;;;;6.97;5.57;;;;;;;17.86;59.36;101148.63;5070050;28;20056;-68
2023/07/21 00:17:01;;;;;;;6.68;6.07;;;;;;;17.85;59.54;101152.59;5070245;28;20049;-69
2023/07/21 00:19:27;;;;;;;6.93;6.32;;;;;;;17.84;59.55;101148.09;5077735;28;20074;-69
2023/07/21 00:21:53;;;;;;;8.50;6.38;;;;;;;17.79;59.54;101150.94;5090372;28;20028;-68
2023/07/21 00:24:19;;;;;;;7.70;5.85;;;;;;;17.80;59.55;101155.44;5091563;28;20468;-68
2023/07/21 00:26:45;;;;;;;6.88;6.20;;;;;;;17.80;59.38;101147.03;5055874;28;20039;-68
2023/07/21 00:29:10;;;;;;;7.22;6.50;;;;;;;17.75;59.44;101149.03;5051020;28;20031;-68
2023/07/21 00:31:38;;;;;;;6.68;5.97;;;;;;;17.73;59.60;101148.47;5051520;28;20029;-68
2023/07/21 00:34:04;;;;;;;6.93;5.82;;;;;;;17.72;59.67;101143.94;5051603;28;20036;-68
2023/07/21 00:36:29;;;;;;;6.78;6.13;;;;;;;17.72;59.65;101138.34;5050549;28;20416;-68
2023/07/21 00:38:58;;;;;;;6.18;5.68;;;;;;;17.78;59.48;101142.81;5050750;28;20048;-68
2023/07/21 00:41:24;;;;;;;8.70;6.35;;;;;;;17.74;59.36;101131.31;5084438;28;20047;-68
2023/07/21 00:43:50;;;;;;;6.90;6.22;;;;;;;17.72;59.46;101136.38;5069644;28;20038;-69
2023/07/21 00:46:15;;;;;;;6.95;6.35;;;;;;;17.72;59.78;101129.91;5085638;28;20114;-69
2023/07/21 00:48:41;;;;;;;7.43;6.80;;;;;;;17.69;59.73;101133.34;5089983;28;20036;-68
2023/07/21 00:51:06;;;;;;;6.93;6.22;;;;;;;17.70;59.65;101124.59;5051276;28;20461;-68
2023/07/21 00:53:33;;;;;;;7.10;6.40;;;;;;;17.60;59.91;101133.94;5050486;28;20033;-68
2023/07/21 00:56:00;;;;;;;7.38;6.55;;;;;;;17.56;59.94;101126.41;5049938;28;20021;-69
2023/07/21 00:58:26;;;;;;;6.93;6.25;;;;;;;17.58;59.91;101127.78;5064940;28;20391;-69
2023/07/21 01:00:51;;;;;;;6.38;5.78;;;;;;;17.56;59.70;101123.59;5058991;28;20479;-67
2023/07/21 01:03:18;;;;;;;7.65;6.95;;;;;;;17.60;59.68;101131.13;5074216;28;20095;-67
2023/07/21 01:05:47;;;;;;;7.95;7.20;;;;;;;17.52;60.08;101119.69;5084814;28;20846;-67
2023/07/21 01:08:13;;;;;;;10.77;6.93;;;;;;;17.52;60.03;101117.72;5073355;28;20042;-67
2023/07/21 01:10:40;;;;;;;8.15;6.30;;;;;;;17.49;60.22;101114.66;5073467;28;20131;-67
2023/07/21 01:13:07;;;;;;;7.53;6.68;;;;;;;17.48;59.89;101108.22;5085920;28;20052;-67
2023/07/21 01:15:35;;;;;;;7.80;7.10;;;;;;;17.47;60.10;101116.94;5094499;28;20039;-67
2023/07/21 01:18:01;;;;;;;9.07;6.53;;;;;;;17.48;59.98;101115.81;5093571;28;20044;-67
2023/07/21 01:20:28;;;;;;;7.20;6.55;;;;;;;17.45;60.07;101107.97;5094747;28;20020;-67
2023/07/21 01:23:00;;;;;;;6.97;6.35;;;;;;;17.40;60.19;101106.88;5070285;28;20025;-67
2023/07/21 01:25:28;;;;;;;7.43;6.72;;;;;;;17.42;59.96;101104.63;5053490;28;20036;-67
2023/07/21 01:27:55;;;;;;;7.60;6.32;;;;;;;17.35;60.33;101104.13;5080820;28;20085;-67
2023/07/21 01:30:21;;;;;;;9.85;7.28;;;;;;;17.27;60.52;101101.94;5088618;28;20032;-67
2023/07/21 01:32:50;;;;;;;8.00;7.13;;;;;;;17.15;60.72;101093.91;5072695;28;20484;-67
2023/07/21 01:35:17;;;;;;;7.50;6.68;;;;;;;17.22;60.68;101098.34;5074279;28;20028;-67
2023/07/21 01:37:45;;;;;;;8.15;6.88;;;;;;;17.22;60.46;101098.34;5071113;28;20028;-67
2023/07/21 01:40:13;;;;;;;7.85;7.15;;;;;;;17.20;60.51;101093.00;5055493;28;20028;-67
2023/07/21 01:42:39;;;;;;;7.32;6.68;;;;;;;17.23;60.54;101088.81;5054039;28;20029;-67
2023/07/21 01:45:07;;;;;;;9.45;7.38;;;;;;;17.23;60.52;101100.84;5052876;28;20894;-67
2023/07/21 01:47:33;;;;;;;8.40;6.70;;;;;;;17.16;60.66;101089.13;5053376;28;20036;-67
2023/07/21 01:49:59;;;;;;;8.10;6.97;;;;;;;17.16;60.67;101086.31;5053835;28;20048;-67
2023/07/21 01:52:27;;;;;;;7.70;6.90;;;;;;;17.15;60.81;101077.06;5052325;28;20025;-67
2023/07/21 01:55:07;;;;;;;10.68;6.43;;;;;;;17.09;60.77;101081.03;5069415;28;20456;-67
2023/07/21 01:57:38;;;;;;;8.02;6.75;;;;;;;17.07;60.87;101079.66;5069261;28;20482;-67
2023/07/21 02:00:08;;;;;;;7.57;6.88;;;;;;;17.07;60.86;101083.28;5072817;28;20032;-67
2023/07/21 02:02:34;;;;;;;10.30;6.93;;;;;;;17.08;60.97;101076.56;5073475;28;20395;-67
2023/07/21 02:04:59;;;;;;;12.05;7.75;;;;;;;17.08;60.82;101070.94;5072979;28;20017;-67
2023/07/21 02:07:24;;;;;;;7.47;6.75;;;;;;;17.06;60.88;101069.56;5072878;28;20052;-67
2023/07/21 02:09:51;;;;;;;7.90;7.20;;;;;;;16.97;61.16;101079.72;5073541;28;20037;-67
2023/07/21 02:12:17;;;;;;;8.48;7.60;;;;;;;16.99;61.01;101069.91;5075852;28;20043;-67
2023/07/21 02:14:42;;;;;;;7.85;7.10;;;;;;;16.97;61.07;101068.50;5071855;28;20020;-67
2023/07/21 02:17:08;;;;;;;8.43;7.63;;;;;;;16.91;61.15;101071.34;5066835;28;20495;-67
2023/07/21 02:19:33;;;;;;;8.85;7.70;;;;;;;16.93;61.08;101069.06;5092941;28;20020;-67
2023/07/21 02:21:59;;;;;;;9.07;7.85;;;;;;;16.85;61.17;101061.28;5085055;28;20028;-68
2023/07/21 02:24:24;;;;;;;9.10;7.85;;;;;;;16.90;61.05;101066.03;5093295;28;20028;-67
2023/07/21 02:26:50;;;;;;;8.73;7.25;;;;;;;16.84;61.08;101065.22;5090177;28;20032;-67
2023/07/21 02:29:15;;;;;;;8.10;7.30;;;;;;;16.86;60.86;101062.97;5092593;28;20034;-67
2023/07/21 02:31:41;;;;;;;9.50;7.53;;;;;;;16.84;61.01;101070.81;5076768;28;20115;-66
2023/07/21 02:34:07;;;;;;;8.77;7.20;;;;;;;16.83;60.94;101059.91;5062324;28;20092;-66
2023/07/21 02:36:32;;;;;;;7.50;6.90;;;;;;;16.80;60.96;101054.88;5077020;28;20028;-68
2023/07/21 02:38:57;;;;;;;8.85;7.90;;;;;;;16.79;60.93;101062.47;5067679;28;20040;-67
2023/07/21 02:41:23;;;;;;;8.57;7.75;;;;;;;16.74;61.02;101056.03;5066386;28;20032;-67
2023/07/21 02:43:48;;;;;;;8.00;7.20;;;;;;;16.75;60.97;101054.91;5057732;28;20027;-67
2023/07/21 02:46:14;;;;;;;7.85;7.13;;;;;;;16.68;61.36;101058.00;5070743;28;20154;-72
2023/07/21 02:48:39;;;;;;;7.30;6.70;;;;;;;16.68;61.41;101049.59;5071919;28;20020;-69
2023/07/21 02:51:05;;;;;;;8.23;7.45;;;;;;;16.66;61.22;101046.22;5065222;28;20037;-68
2023/07/21 02:53:30;;;;;;;7.93;7.32;;;;;;;16.66;61.07;101049.03;5072389;28;20125;-68
2023/07/21 02:55:56;;;;;;;7.90;7.13;;;;;;;16.63;61.05;101055.25;5056885;28;20025;-66
2023/07/21 02:58:26;;;;;;;9.07;7.45;;;;;;;16.62;61.01;101050.72;5061558;28;20032;-69
2023/07/21 03:00:54;;;;;;;7.75;7.05;;;;;;;16.57;61.03;101053.56;5072021;28;20960;-69
2023/07/21 03:03:20;;;;;;;7.50;6.82;;;;;;;16.57;60.90;101054.41;5071710;28;20025;-69
2023/07/21 03:05:45;;;;;;;8.75;7.93;;;;;;;16.54;60.92;101048.53;5055236;28;20032;-70
2023/07/21 03:08:14;;;;;;;8.10;7.40;;;;;;;16.56;61.06;101054.72;5089951;28;20028;-70
2023/07/21 03:10:39;;;;;;;9.48;6.82;;;;;;;16.59;60.94;101051.34;5092117;28;20028;-67
2023/07/21 03:13:04;;;;;;;8.38;7.57;;;;;;;16.49;61.10;101046.59;5071070;28;20023;-68
2023/07/21 03:15:30;;;;;;;8.82;7.25;;;;;;;16.49;61.10;101048.56;5071973;28;20388;-68
2023/07/21 03:17:55;;;;;;;8.35;7.25;;;;;;;16.45;60.92;101046.34;5069679;28;20103;-67
2023/07/21 03:20:20;;;;;;;8.90;8.00;;;;;;;16.42;60.93;101046.06;5066596;28;20048;-68
2023/07/21 03:22:46;;;;;;;9.13;8.05;;;;;;;16.42;61.06;101054.47;5088105;28;20118;-68
2023/07/21 03:25:13;;;;;;;7.40;6.70;;;;;;;16.35;61.19;101048.38;5091426;28;20111;-68
2023/07/21 03:27:39;;;;;;;8.30;7.53;;;;;;;16.33;60.95;101051.44;5079228;28;20113;-67
2023/07/21 03:30:06;;;;;;;7.95;7.25;;;;;;;16.38;60.97;101051.41;5071454;28;20017;-68
2023/07/21 03:32:31;;;;;;;8.00;7.30;;;;;;;16.34;61.15;101055.91;5070828;28;20114;-68
2023/07/21 03:34:57;;;;;;;7.43;6.55;;;;;;;16.35;61.23;101052.00;5072023;28;20025;-68
2023/07/21 03:37:23;;;;;;;8.02;7.32;;;;;;;16.29;61.35;101050.34;5059264;28;20037;-68
2023/07/21 03:39:48;;;;;;;7.55;6.90;;;;;;;16.31;61.31;101050.91;5052167;28;20036;-67
2023/07/21 03:42:14;;;;;;;7.95;7.18;;;;;;;16.29;61.24;101046.72;5068286;28;20719;-68
2023/07/21 03:44:39;;;;;;;9.40;8.25;;;;;;;16.25;61.09;101048.41;5070492;28;20056;-68
2023/07/21 03:47:05;;;;;;;8.43;6.82;;;;;;;16.23;61.08;101047.84;5071905;28;20059;-67
2023/07/21 03:49:30;;;;;;;8.23;7.43;;;;;;;16.23;61.26;101045.91;5071961;28;20021;-68
2023/07/21 03:51:55;;;;;;;8.10;7.03;;;;;;;16.25;61.29;101054.00;5070643;28;20028;-68
2023/07/21 03:54:22;;;;;;;8.38;7.57;;;;;;;16.23;61.14;101057.13;5067088;28;20078;-68
2023/07/21 03:56:47;;;;;;;8.30;7.57;;;;;;;16.25;61.29;101052.03;5051419;28;20115;-68
2023/07/21 03:59:13;;;;;;;8.43;7.57;;;;;;;16.20;61.35;101050.09;5051107;28;20120;-68
2023/07/21 04:01:38;;;;;;;9.35;7.85;;;;;;;16.26;61.37;101053.72;5051110;28;20021;-68
2023/07/21 04:04:03;;;;;;;8.88;7.47;;;;;;;16.19;61.34;101048.44;5051710;28;20534;-67
2023/07/21 04:06:29;;;;;;;7.78;6.95;;;;;;;16.24;61.30;101041.16;5050580;28;20056;-68
2023/07/21 04:08:54;;;;;;;7.90;7.10;;;;;;;16.17;61.38;101044.25;5057040;28;20028;-68
2023/07/21 04:11:20;;;;;;;8.15;7.35;;;;;;;16.12;61.53;101035.88;5088216;28;20070;-68
2023/07/21 04:13:45;;;;;;;9.52;8.07;;;;;;;16.09;61.76;101031.66;5056678;28;20544;-68
2023/07/21 04:16:11;;;;;;;8.68;7.68;;;;;;;16.13;61.73;101026.34;5051229;28;20056;-68
2023/07/21 04:18:37;;;;;;;8.70;7.90;;;;;;;16.07;61.85;101024.66;5050746;28;20484;-68
2023/07/21 04:21:03;;;;;;;9.50;8.45;;;;;;;16.04;62.06;101036.47;5050373;28;20033;-68
2023/07/21 04:23:28;;;;;;;8.90;8.10;;;;;;;16.08;62.21;101031.97;5050766;28;20029;-67
2023/07/21 04:25:54;;;;;;;8.68;7.80;;;;;;;16.02;62.34;101024.69;5081543;28;20035;-68
2023/07/21 04:28:19;;;;;;;8.68;7.88;;;;;;;16.04;62.30;101023.28;5090589;28;20028;-68
2023/07/21 04:30:46;;;;;;;9.02;8.18;;;;;;;16.03;62.27;101024.41;5062807;28;20036;-68
2023/07/21 04:33:12;;;;;;;9.43;8.45;;;;;;;16.06;62.25;101028.59;5071320;28;20025;-68
2023/07/21 04:35:43;;;;;;;10.18;9.25;;;;;;;16.03;62.61;101020.75;5070195;28;20433;-67
2023/07/21 04:38:08;;;;;;;10.52;9.63;;;;;;;16.00;62.63;101021.34;5070965;28;20611;-68
2023/07/21 04:40:33;;;;;;;11.07;10.07;;;;;;;16.03;62.75;101027.19;5084030;28;20114;-67
2023/07/21 04:42:59;;;;;;;12.38;11.27;;;;;;;16.05;62.73;101022.16;5093141;28;20078;-68
2023/07/21 04:45:24;;;;;;;12.52;11.23;;;;;;;16.01;63.05;101023.84;5094336;28;20028;-68
2023/07/21 04:47:50;;;;;;;15.00;11.95;;;;;;;16.02;62.96;101024.69;5074116;28;20111;-68
2023/07/21 04:50:15;;;;;;;12.93;11.82;;;;;;;15.96;63.39;101023.88;5055194;28;20029;-68
2023/07/21 04:52:40;;;;;;;13.05;11.77;;;;;;;15.94;63.57;101015.75;5054347;28;20055;-68
2023/07/21 04:55:06;;;;;;;13.13;11.95;;;;;;;16.02;63.37;101021.91;5065898;28;20075;-68
2023/07/21 04:57:32;;;;;;;13.95;12.50;;;;;;;16.05;63.50;101012.94;5074756;28;20071;-68
2023/07/21 04:59:59;;;;;;;12.60;11.32;;;;;;;16.07;63.79;101017.13;5073993;28;20032;-67
2023/07/21 05:02:26;;;;;;;13.35;12.15;;;;;;;16.12;63.57;101019.91;5073698;28;20468;-68
2023/07/21 05:04:52;;;;;;;13.90;12.68;;;;;;;16.17;64.01;101017.06;5069113;28;20039;-68
2023/07/21 05:07:18;;;;;;;14.60;13.18;;;;;;;16.16;64.01;101018.19;5074506;28;20104;-68
2023/07/21 05:09:44;;;;;;;14.88;13.35;;;;;;;16.23;63.80;101008.63;5073455;28;20111;-68
2023/07/21 05:12:09;;;;;;;15.07;13.52;;;;;;;16.22;63.84;101013.41;5074212;28;20029;-68
2023/07/21 05:14:34;;;;;;;14.65;13.35;;;;;;;16.25;63.91;101015.63;5074134;28;20021;-68
2023/07/21 05:16:59;;;;;;;14.05;12.82;;;;;;;16.31;63.93;101006.09;5072799;28;20123;-68
2023/07/21 05:19:25;;;;;;;14.75;13.35;;;;;;;16.33;63.89;101017.84;5081294;28;20032;-68
2023/07/21 05:21:50;;;;;;;15.45;13.55;;;;;;;16.38;63.97;101012.19;5071219;28;20039;-68
2023/07/21 05:24:15;;;;;;;15.85;14.25;;;;;;;16.38;63.88;101012.19;5075580;28;20027;-67
2023/07/21 05:26:41;;;;;;;16.05;14.18;;;;;;;16.38;64.01;101012.19;5085756;28;20703;-68
2023/07/21 05:29:06;;;;;;;15.18;13.77;;;;;;;16.41;64.21;101016.41;5080485;28;20040;-67
2023/07/21 05:31:31;;;;;;;15.75;13.88;;;;;;;16.43;64.32;101009.38;5073471;28;20123;-68
2023/07/21 05:33:57;;;;;;;15.68;14.20;;;;;;;16.43;64.26;101015.00;5073581;28;20464;-68
2023/07/21 05:36:24;;;;;;;15.02;13.45;;;;;;;16.49;63.95;101020.56;5072971;28;20042;-68
2023/07/21 05:38:50;;;;;;;15.77;14.30;;;;;;;16.55;64.29;101017.44;5054170;28;20124;-68
2023/07/21 05:41:16;;;;;;;16.08;14.50;;;;;;;16.62;63.70;101022.72;5073164;28;20111;-68
2023/07/21 05:43:43;;;;;;;15.15;13.60;;;;;;;16.67;64.04;101019.91;5093325;28;20502;-68
2023/07/21 05:46:08;;;;;;;17.95;14.35;;;;;;;16.76;64.26;101018.19;5090846;28;20070;-68
2023/07/21 05:48:33;;;;;;;15.73;13.88;;;;;;;16.82;64.36;101019.84;5093917;28;20415;-68
2023/07/21 05:50:58;;;;;;;14.80;13.40;;;;;;;16.78;64.15;101018.75;5093133;28;20020;-68
2023/07/21 05:53:24;;;;;;;15.43;14.02;;;;;;;16.87;63.82;101017.00;5092765;28;20028;-68
2023/07/21 05:55:50;;;;;;;14.43;13.13;;;;;;;16.86;63.99;101028.50;5074257;28;20037;-67
2023/07/21 05:58:15;;;;;;;15.25;13.65;;;;;;;16.90;63.88;101023.97;5052617;28;20140;-68
2023/07/21 06:00:41;;;;;;;15.23;13.82;;;;;;;16.92;63.89;101028.16;5053245;28;20056;-68
2023/07/21 06:03:06;;;;;;;15.13;13.63;;;;;;;17.00;63.83;101023.06;5091111;28;20024;-68
2023/07/21 06:05:36;;;;;;;15.32;13.60;;;;;;;17.03;63.88;101033.69;5093086;28;20249;-68
2023/07/21 06:08:04;;;;;;;15.23;13.30;;;;;;;17.07;63.85;101026.38;5093552;28;20030;-68
2023/07/21 06:10:30;;;;;;;16.48;14.20;;;;;;;17.06;63.74;101021.91;5093422;28;20455;-68
2023/07/21 06:12:56;;;;;;;16.77;14.30;;;;;;;17.08;64.08;101025.22;5065784;28;20459;-68
2023/07/21 06:15:21;;;;;;;16.00;13.07;;;;;;;17.19;63.39;101026.84;5070206;28;20103;-68
2023/07/21 06:17:46;;;;;;;14.80;13.05;;;;;;;17.25;63.20;101022.00;5072703;28;20539;-68
2023/07/21 06:20:13;;;;;;;15.63;13.55;;;;;;;17.30;62.99;101025.63;5071937;28;20036;-68
2023/07/21 06:22:38;;;;;;;15.40;13.43;;;;;;;17.37;63.01;101025.25;5072870;28;20031;-68
2023/07/21 06:25:04;;;;;;;13.50;12.10;;;;;;;17.43;62.42;101024.09;5072927;28;20427;-68
2023/07/21 06:27:30;;;;;;;14.27;12.82;;;;;;;17.50;62.05;101016.16;5076637;28;20028;-68
2023/07/21 06:29:56;;;;;;;13.82;12.43;;;;;;;17.58;61.40;101017.50;5065023;28;20124;-68
2023/07/21 06:32:21;;;;;;;14.73;12.68;;;;;;;17.60;61.03;101024.47;5064943;28;20032;-68
2023/07/21 06:34:47;;;;;;;13.98;12.70;;;;;;;17.57;61.09;101027.06;5078994;28;20483;-68
2023/07/21 06:37:12;;;;;;;13.63;12.20;;;;;;;17.55;61.44;101016.13;5093053;28;20039;-68
2023/07/21 06:39:38;;;;;;;13.98;12.57;;;;;;;17.60;61.47;101018.84;5092858;28;20036;-68
2023/07/21 06:42:04;;;;;;;14.32;12.85;;;;;;;17.61;61.72;101022.53;5092135;28;20103;-68
2023/07/21 06:44:31;;;;;;;13.77;12.35;;;;;;;17.65;60.95;101016.03;5092604;28;20560;-68
2023/07/21 06:46:57;;;;;;;14.95;13.20;;;;;;;17.62;61.57;101018.56;5091333;28;20028;-68
2023/07/21 06:49:22;;;;;;;15.55;13.80;;;;;;;17.62;61.40;101019.41;5091123;28;20045;-68
2023/07/21 06:51:47;;;;;;;14.77;13.27;;;;;;;17.65;61.64;101012.38;5085175;28;20621;-68
2023/07/21 06:54:13;;;;;;;14.95;13.40;;;;;;;17.67;61.73;101015.72;5068958;28;20024;-68
2023/07/21 06:56:38;;;;;;;16.35;14.75;;;;;;;17.68;62.20;101014.56;5071626;28;20027;-69
2023/07/21 06:59:03;;;;;;;15.73;14.07;;;;;;;17.71;61.54;101013.97;5072226;28;20037;-68
2023/07/21 07:01:29;;;;;;;17.10;15.30;;;;;;;17.72;61.30;101006.38;5070901;28;20032;-68
2023/07/21 07:03:55;;;;;;;17.70;14.00;;;;;;;17.75;61.30;101009.47;5087232;28;20032;-69
2023/07/21 07:06:21;;;;;;;16.92;14.35;;;;;;;17.79;61.26;101018.16;5091475;28;20016;-68
2023/07/21 07:08:46;;;;;;;16.90;14.13;;;;;;;17.84;61.40;101015.28;5077230;28;20025;-68
2023/07/21 07:11:12;;;;;;;16.75;15.02;;;;;;;17.87;61.68;101004.28;5072312;28;20046;-69
2023/07/21 07:13:37;;;;;;;18.23;14.10;;;;;;;17.95;61.19;101013.19;5071438;28;20031;-68
2023/07/21 07:16:03;;;;;;;15.95;14.40;;;;;;;17.92;61.29;101006.22;5071152;28;20076;-68
2023/07/21 07:18:29;;;;;;;16.60;14.10;;;;;;;17.99;60.91;101006.66;5078666;28;20115;-68
2023/07/21 07:20:56;;;;;;;16.13;14.43;;;;;;;18.04;61.33;101001.00;5092065;28;20024;-68
2023/07/21 07:23:22;;;;;;;15.65;14.02;;;;;;;18.14;61.32;100998.06;5090916;28;20042;-68
2023/07/21 07:25:49;;;;;;;15.82;14.13;;;;;;;18.29;61.57;100994.22;5069459;28;20029;-68
2023/07/21 07:28:16;;;;;;;17.75;15.73;;;;;;;18.42;62.13;100998.25;5071477;28;20095;-68
2023/07/21 07:30:41;;;;;;;17.30;15.30;;;;;;;18.55;61.27;100996.66;5070970;28;20529;-68
2023/07/21 07:33:06;;;;;;;18.00;16.30;;;;;;;18.66;60.91;100998.19;5071417;28;20032;-68
2023/07/21 07:35:32;;;;;;;16.33;14.73;;;;;;;18.73;60.37;100998.69;5086183;28;20456;-68
2023/07/21 07:37:57;;;;;;;14.85;13.35;;;;;;;18.81;59.75;100998.00;5088044;28;20064;-68
2023/07/21 07:40:22;;;;;;;16.45;14.60;;;;;;;18.88;59.32;101000.44;5084019;28;20032;-68
2023/07/21 07:42:48;;;;;;;15.98;14.38;;;;;;;18.93;58.69;101007.94;5058624;28;20703;-68
2023/07/21 07:45:14;;;;;;;16.77;13.27;;;;;;;18.87;58.40;101005.22;5050821;28;20021;-68
2023/07/21 07:47:40;;;;;;;14.93;12.57;;;;;;;18.92;58.44;101012.72;5051292;28;20036;-68
2023/07/21 07:50:06;;;;;;;11.57;10.38;;;;;;;18.94;57.83;101010.44;5068543;28;20029;-68
2023/07/21 07:52:31;;;;;;;11.35;10.13;;;;;;;18.96;57.37;101013.78;5070621;28;20480;-68
2023/07/21 07:54:57;;;;;;;15.77;11.45;;;;;;;19.00;57.45;101008.41;5071328;28;20047;-68
2023/07/21 07:57:26;;;;;;;12.30;11.10;;;;;;;19.01;57.54;101010.88;5070978;28;20064;-68
2023/07/21 07:59:51;;;;;;;12.05;10.95;;;;;;;19.02;56.83;101012.59;5059380;28;20131;-69
2023/07/21 08:02:17;;;;;;;12.85;10.48;;;;;;;19.04;56.44;101007.47;5050597;28;20124;-69
2023/07/21 08:04:42;;;;;;;10.45;9.43;;;;;;;19.03;56.17;101016.22;5050483;28;20039;-69
2023/07/21 08:07:07;;;;;;;11.68;10.43;;;;;;;19.06;56.64;101012.78;5051006;28;20029;-69
2023/07/21 08:09:32;;;;;;;12.05;10.50;;;;;;;19.08;56.89;101008.53;5051510;28;20072;-68
2023/07/21 08:11:58;;;;;;;11.25;10.07;;;;;;;19.12;56.71;101008.75;5073556;28;20484;-68
2023/07/21 08:14:23;;;;;;;15.40;11.30;;;;;;;19.13;56.42;100997.19;5065477;28;20033;-69
2023/07/21 08:16:48;;;;;;;12.75;11.45;;;;;;;19.16;56.33;101001.38;5085104;28;20051;-68
2023/07/21 08:19:14;;;;;;;12.20;10.32;;;;;;;19.20;56.11;101004.41;5090215;28;20105;-68
2023/07/21 08:21:39;;;;;;;11.82;10.45;;;;;;;19.23;56.15;100996.19;5074309;28;20111;-68
2023/07/21 08:24:05;;;;;;;12.90;10.43;;;;;;;19.31;56.11;100994.66;5050072;28;20029;-67
2023/07/21 08:26:30;;;;;;;11.95;9.95;;;;;;;19.41;55.76;100999.25;5067988;28;20549;-68
2023/07/21 08:28:55;;;;;;;11.95;9.25;;;;;;;19.45;55.74;101000.28;5068050;28;20025;-67
2023/07/21 08:31:21;;;;;;;10.27;8.98;;;;;;;19.46;54.33;100999.19;5084025;28;20503;-68
2023/07/21 08:33:46;;;;;;;10.15;9.15;;;;;;;19.50;54.85;101003.03;5090613;28;20100;-68
2023/07/21 08:36:12;;;;;;;10.82;9.43;;;;;;;19.51;54.30;100999.06;5085371;28;20078;-67
2023/07/21 08:38:37;;;;;;;16.63;11.35;;;;;;;19.50;55.10;101000.22;5061053;28;20032;-68
2023/07/21 08:41:13;;;;;;;13.82;10.80;;;;;;;19.53;55.41;101005.22;5062625;28;20048;-68
2023/07/21 08:43:39;;;;;;;12.93;8.35;;;;;;;19.66;57.01;100998.81;5070354;28;20029;-67
2023/07/21 08:46:07;;;;;;;15.63;10.32;;;;;;;19.66;56.17;101004.44;5071611;28;20035;-71
2023/07/21 08:48:32;;;;;;;10.07;8.40;;;;;;;19.76;56.43;101004.22;5067059;28;20037;-68
2023/07/21 08:50:58;;;;;;;13.30;12.00;;;;;;;19.81;55.90;101006.97;5061547;28;20036;-68
2023/07/21 08:53:24;;;;;;;12.65;10.77;;;;;;;19.91;55.66;101010.72;5056070;28;20380;-68
2023/07/21 08:55:54;;;;;;;13.70;11.55;;;;;;;19.92;55.33;101004.75;5065092;28;20046;-68
2023/07/21 08:58:23;;;;;;;13.15;11.80;;;;;;;19.88;55.11;101006.53;5068527;28;20110;-68
2023/07/21 09:00:50;;;;;;;15.60;11.77;;;;;;;19.89;55.08;101013.03;5090377;28;20097;-67
2023/07/21 09:03:21;;;;;;;13.07;10.90;;;;;;;19.88;55.16;101005.72;5090906;28;20030;-68
2023/07/21 09:05:47;;;;;;;13.18;10.48;;;;;;;19.88;55.11;101006.53;5090525;28;20050;-68
2023/07/21 09:08:21;;;;;;;11.77;9.68;;;;;;;19.92;55.14;101009.56;5090335;28;20133;-68
2023/07/21 09:10:46;;;;;;;10.35;9.23;;;;;;;19.98;54.96;100999.88;5090449;28;20103;-68
2023/07/21 09:13:19;;;;;;;12.50;10.80;;;;;;;20.03;54.60;101003.41;5069075;28;20148;-68
2023/07/21 09:15:51;;;;;;;12.68;11.48;;;;;;;20.10;54.76;100997.38;5069635;28;20028;-67
2023/07/21 09:18:17;;;;;;;12.95;10.70;;;;;;;20.17;54.84;100999.78;5070479;28;20123;-68
2023/07/21 09:20:45;;;;;;;11.68;9.82;;;;;;;20.22;54.64;101002.47;5073464;28;20028;-68
2023/07/21 09:23:10;;;;;;;12.40;10.68;;;;;;;20.29;54.92;100992.44;5087775;28;20039;-68
2023/07/21 09:25:47;;;;;;;11.52;10.27;;;;;;;20.42;54.84;100998.38;5088306;28;20032;-68
2023/07/21 09:28:12;;;;;;;13.63;12.23;;;;;;;20.50;54.54;100995.69;5077863;28;20170;-68
2023/07/21 09:30:49;;;;;;;15.73;14.02;;;;;;;20.59;54.44;100998.56;5073387;28;20104;-68
2023/07/21 09:33:15;;;;;;;16.85;14.88;;;;;;;20.61;53.48;100987.81;5074218;28;20099;-68
2023/07/21 09:35:40;;;;;;;15.55;13.95;;;;;;;20.78;53.89;100989.97;5081264;28;20168;-68
2023/07/21 09:38:11;;;;;;;21.48;19.20;;;;;;;20.79;51.42;100986.84;5093555;28;20559;-67
2023/07/21 09:40:42;;;;;;;19.92;17.80;;;;;;;20.90;51.87;100997.84;5094000;28;20027;-68
2023/07/21 09:43:09;;;;;;;21.42;19.15;;;;;;;20.93;51.96;100978.31;5093389;28;20028;-68
2023/07/21 09:45:36;;;;;;;21.73;19.33;;;;;;;20.93;52.17;100974.66;5088940;28;20119;-68
2023/07/21 09:48:02;;;;;;;19.67;16.67;;;;;;;21.00;52.33;100975.88;5073345;28;20103;-67
2023/07/21 09:50:27;;;;;;;19.90;16.67;;;;;;;21.09;52.24;100973.09;5073334;28;20085;-68
2023/07/21 09:52:55;;;;;;;19.92;17.73;;;;;;;21.16;52.23;100972.66;5073325;28;20107;-67
2023/07/21 09:55:22;;;;;;;19.05;17.02;;;;;;;21.27;51.59;100972.06;5071557;28;20095;-68
2023/07/21 09:57:48;;;;;;;19.55;17.45;;;;;;;21.40;51.03;100972.34;5072851;28;20032;-68
2023/07/21 10:00:16;;;;;;;17.27;15.38;;;;;;;21.46;50.16;100965.41;5073215;28;20032;-67
2023/07/21 10:02:43;;;;;;;14.48;12.98;;;;;;;21.52;49.20;100969.75;5073456;28;20031;-68
2023/07/21 10:05:11;;;;;;;16.58;14.57;;;;;;;21.46;49.21;100968.25;5069306;28;20028;-68
2023/07/21 10:07:39;;;;;;;15.27;13.60;;;;;;;21.35;49.58;100973.31;5091209;28;20169;-67
2023/07/21 10:10:06;;;;;;;15.95;14.18;;;;;;;21.26;50.21;100983.69;5093539;28;20028;-68
2023/07/21 10:12:48;;;;;;;15.90;13.90;;;;;;;21.19;50.66;100980.50;5093021;28;20527;-68
2023/07/21 10:15:19;;;;;;;18.00;15.48;;;;;;;21.08;51.94;100982.75;5093777;28;20039;-68
2023/07/21 10:17:58;;;;;;;18.45;16.33;;;;;;;20.95;53.22;100984.47;5092947;28;20063;-67
2023/07/21 10:20:40;;;;;;;24.88;18.80;;;;;;;20.82;55.99;100991.00;5091024;28;20057;-68
2023/07/21 10:23:06;;;;;;;22.83;19.73;;;;;;;20.63;58.70;100985.50;5066325;28;20044;-68
2023/07/21 10:25:48;;;;;;;18.90;17.00;;;;;;;20.61;57.60;100989.81;5072183;28;20416;-68
2023/07/21 10:28:14;;;;;;;23.75;21.23;;;;;;;20.45;60.76;100980.84;5072910;28;20111;-68
2023/07/21 10:30:41;;;;;;;23.15;20.73;;;;;;;20.31;60.57;100995.78;5073638;28;20108;-68
2023/07/21 10:33:21;;;;;;;19.50;17.42;;;;;;;20.34;60.42;100997.97;5092360;28;20070;-67
2023/07/21 10:35:48;;;;;;;21.23;18.90;;;;;;;20.29;61.37;101000.91;5093100;28;20024;-68
2023/07/21 10:38:13;;;;;;;22.92;20.55;;;;;;;20.26;61.92;100992.25;5092864;28;20035;-68
2023/07/21 10:40:42;;;;;;;21.85;19.55;;;;;;;20.20;61.92;101010.41;5064868;28;20040;-68
2023/07/21 10:43:08;;;;;;;23.70;21.17;;;;;;;20.14;63.23;101009.69;5072874;28;20048;-68
2023/07/21 10:45:33;;;;;;;25.05;22.50;;;;;;;19.98;63.63;101006.34;5071347;28;20443;-71
2023/07/21 10:48:12;;;;;;;25.48;21.63;;;;;;;19.92;61.90;101009.56;5071914;28;20028;-70
2023/07/21 10:50:41;;;;;;;20.42;18.20;;;;;;;19.78;61.58;101018.03;5072788;28;20023;-70
2023/07/21 10:53:07;;;;;;;13.40;10.32;;;;;;;19.67;59.75;101013.72;5089091;28;20016;-70
2023/07/21 10:55:36;;;;;;;11.98;9.75;;;;;;;19.58;60.76;101014.41;5091593;28;20186;-70
2023/07/21 10:58:01;;;;;;;13.55;12.15;;;;;;;19.57;61.96;101014.72;5064513;28;20040;-71
2023/07/21 11:00:27;;;;;;;21.30;17.35;;;;;;;19.50;63.57;101022.75;5091812;28;20034;-71
2023/07/21 11:02:56;;;;;;;22.98;20.75;;;;;;;19.49;64.73;101016.28;5092378;28;20467;-70
2023/07/21 11:05:22;;;;;;;27.27;23.92;;;;;;;19.43;65.66;101013.84;5092533;28;20028;-72
2023/07/21 11:07:48;;;;;;;22.60;19.23;;;;;;;19.42;65.55;101021.47;5079307;28;20020;-69
2023/07/21 11:10:15;;;;;;;16.17;14.02;;;;;;;19.30;64.49;101026.75;5071329;28;20114;-69
2023/07/21 11:12:40;;;;;;;13.63;11.73;;;;;;;19.20;63.68;101036.19;5076292;28;20031;-68
2023/07/21 11:15:08;;;;;;;12.18;10.98;;;;;;;19.17;64.27;101042.41;5080040;28;20028;-71